sensor_id;sensor_type;location;lat;lon;timestamp;P1;durP1;ratioP1;P2;durP2;ratioP2
83495;SDS011;73431;40.794;43.836;2024-02-21T00:01:53;36.60;;;11.35;;
83495;SDS011;73431;40.794;43.836;2024-02-21T00:04:21;32.15;;;11.48;;
83495;SDS011;73431;40.794;43.836;2024-02-21T00:06:49;29.50;;;11.20;;
83495;SDS011;73431;40.794;43.836;2024-02-21T00:09:17;31.20;;;11.68;;
83495;SDS011;73431;40.794;43.836;2024-02-21T00:11:46;39.78;;;11.82;;
83495;SDS011;73431;40.794;43.836;2024-02-21T00:14:15;27.80;;;11.18;;
83495;SDS011;73431;40.794;43.836;2024-02-21T00:16:42;33.15;;;11.70;;
83495;SDS011;73431;40.794;43.836;2024-02-21T00:23:18;17.48;;;7.18;;
83495;SDS011;73431;40.794;43.836;2024-02-21T00:28:14;14.30;;;6.43;;
83495;SDS011;73431;40.794;43.836;2024-02-21T00:30:42;19.92;;;7.55;;
83495;SDS011;73431;40.794;43.836;2024-02-21T00:33:10;22.73;;;7.93;;
83495;SDS011;73431;40.794;43.836;2024-02-21T00:38:05;13.07;;;6.78;;
83495;SDS011;73431;40.794;43.836;2024-02-21T00:40:33;21.05;;;8.05;;
83495;SDS011;73431;40.794;43.836;2024-02-21T00:43:02;13.52;;;7.18;;
83495;SDS011;73431;40.794;43.836;2024-02-21T00:45:30;22.23;;;6.93;;
83495;SDS011;73431;40.794;43.836;2024-02-21T00:47:58;13.98;;;7.00;;
83495;SDS011;73431;40.794;43.836;2024-02-21T00:50:25;14.00;;;6.75;;
83495;SDS011;73431;40.794;43.836;2024-02-21T00:52:53;14.95;;;6.30;;
83495;SDS011;73431;40.794;43.836;2024-02-21T00:55:20;16.27;;;7.07;;
83495;SDS011;73431;40.794;43.836;2024-02-21T00:57:48;13.13;;;6.28;;
83495;SDS011;73431;40.794;43.836;2024-02-21T01:00:16;11.25;;;5.72;;
83495;SDS011;73431;40.794;43.836;2024-02-21T01:02:44;11.30;;;5.28;;
83495;SDS011;73431;40.794;43.836;2024-02-21T01:05:11;11.52;;;5.03;;
83495;SDS011;73431;40.794;43.836;2024-02-21T01:07:39;10.57;;;5.40;;
83495;SDS011;73431;40.794;43.836;2024-02-21T01:10:07;14.88;;;5.50;;
83495;SDS011;73431;40.794;43.836;2024-02-21T01:12:36;7.88;;;4.80;;
83495;SDS011;73431;40.794;43.836;2024-02-21T01:15:03;11.70;;;5.57;;
83495;SDS011;73431;40.794;43.836;2024-02-21T01:19:59;17.23;;;5.35;;
83495;SDS011;73431;40.794;43.836;2024-02-21T01:22:29;21.90;;;5.88;;
83495;SDS011;73431;40.794;43.836;2024-02-21T01:24:57;13.45;;;6.35;;
83495;SDS011;73431;40.794;43.836;2024-02-21T01:27:25;9.63;;;5.35;;
83495;SDS011;73431;40.794;43.836;2024-02-21T01:29:53;13.40;;;5.93;;
83495;SDS011;73431;40.794;43.836;2024-02-21T01:32:21;11.68;;;6.18;;
83495;SDS011;73431;40.794;43.836;2024-02-21T01:34:51;13.00;;;6.00;;
83495;SDS011;73431;40.794;43.836;2024-02-21T01:37:19;10.90;;;5.88;;
83495;SDS011;73431;40.794;43.836;2024-02-21T01:39:47;10.25;;;6.05;;
83495;SDS011;73431;40.794;43.836;2024-02-21T01:42:16;12.65;;;6.05;;
83495;SDS011;73431;40.794;43.836;2024-02-21T01:44:44;19.27;;;6.63;;
83495;SDS011;73431;40.794;43.836;2024-02-21T01:47:12;22.25;;;6.70;;
83495;SDS011;73431;40.794;43.836;2024-02-21T01:49:42;13.45;;;7.05;;
83495;SDS011;73431;40.794;43.836;2024-02-21T01:52:10;13.35;;;7.60;;
83495;SDS011;73431;40.794;43.836;2024-02-21T01:54:41;17.23;;;6.53;;
83495;SDS011;73431;40.794;43.836;2024-02-21T01:57:09;16.27;;;7.05;;
83495;SDS011;73431;40.794;43.836;2024-02-21T01:59:37;16.55;;;7.15;;
83495;SDS011;73431;40.794;43.836;2024-02-21T02:02:05;17.63;;;7.85;;
83495;SDS011;73431;40.794;43.836;2024-02-21T02:04:33;17.80;;;8.32;;
83495;SDS011;73431;40.794;43.836;2024-02-21T02:09:31;21.13;;;9.55;;
83495;SDS011;73431;40.794;43.836;2024-02-21T02:11:58;21.60;;;9.52;;
83495;SDS011;73431;40.794;43.836;2024-02-21T02:14:27;21.10;;;9.82;;
83495;SDS011;73431;40.794;43.836;2024-02-21T02:16:55;18.30;;;7.85;;
83495;SDS011;73431;40.794;43.836;2024-02-21T02:19:24;20.40;;;10.15;;
83495;SDS011;73431;40.794;43.836;2024-02-21T02:21:56;16.35;;;7.97;;
83495;SDS011;73431;40.794;43.836;2024-02-21T02:24:32;18.88;;;8.70;;
83495;SDS011;73431;40.794;43.836;2024-02-21T02:27:00;21.30;;;9.57;;
83495;SDS011;73431;40.794;43.836;2024-02-21T02:31:59;18.70;;;9.07;;
83495;SDS011;73431;40.794;43.836;2024-02-21T02:34:27;20.88;;;8.68;;
83495;SDS011;73431;40.794;43.836;2024-02-21T02:36:55;17.85;;;9.48;;
83495;SDS011;73431;40.794;43.836;2024-02-21T02:39:22;19.05;;;9.32;;
83495;SDS011;73431;40.794;43.836;2024-02-21T02:41:50;22.33;;;9.23;;
83495;SDS011;73431;40.794;43.836;2024-02-21T02:44:18;22.00;;;9.73;;
83495;SDS011;73431;40.794;43.836;2024-02-21T02:46:46;25.98;;;9.18;;
83495;SDS011;73431;40.794;43.836;2024-02-21T02:49:14;17.02;;;9.32;;
83495;SDS011;73431;40.794;43.836;2024-02-21T02:51:42;18.73;;;8.68;;
83495;SDS011;73431;40.794;43.836;2024-02-21T02:54:13;22.67;;;8.55;;
83495;SDS011;73431;40.794;43.836;2024-02-21T02:56:41;20.83;;;9.68;;
83495;SDS011;73431;40.794;43.836;2024-02-21T02:59:08;23.30;;;10.13;;
83495;SDS011;73431;40.794;43.836;2024-02-21T03:01:36;24.60;;;9.65;;
83495;SDS011;73431;40.794;43.836;2024-02-21T03:04:05;18.45;;;9.65;;
83495;SDS011;73431;40.794;43.836;2024-02-21T03:06:33;22.30;;;8.77;;
83495;SDS011;73431;40.794;43.836;2024-02-21T03:09:01;23.58;;;8.82;;
83495;SDS011;73431;40.794;43.836;2024-02-21T03:11:28;15.63;;;7.60;;
83495;SDS011;73431;40.794;43.836;2024-02-21T03:16:25;23.20;;;8.45;;
83495;SDS011;73431;40.794;43.836;2024-02-21T03:18:53;15.75;;;9.13;;
83495;SDS011;73431;40.794;43.836;2024-02-21T03:21:20;19.02;;;8.07;;
83495;SDS011;73431;40.794;43.836;2024-02-21T03:23:48;18.92;;;9.38;;
83495;SDS011;73431;40.794;43.836;2024-02-21T03:26:16;27.52;;;8.60;;
83495;SDS011;73431;40.794;43.836;2024-02-21T03:28:44;19.85;;;9.85;;
83495;SDS011;73431;40.794;43.836;2024-02-21T03:31:14;35.42;;;10.00;;
83495;SDS011;73431;40.794;43.836;2024-02-21T03:33:42;23.63;;;10.82;;
83495;SDS011;73431;40.794;43.836;2024-02-21T03:36:13;22.17;;;9.15;;
83495;SDS011;73431;40.794;43.836;2024-02-21T03:38:42;29.95;;;9.77;;
83495;SDS011;73431;40.794;43.836;2024-02-21T03:41:10;24.58;;;8.93;;
83495;SDS011;73431;40.794;43.836;2024-02-21T03:43:38;28.08;;;8.85;;
83495;SDS011;73431;40.794;43.836;2024-02-21T03:46:06;23.90;;;9.07;;
83495;SDS011;73431;40.794;43.836;2024-02-21T03:48:35;31.42;;;10.73;;
83495;SDS011;73431;40.794;43.836;2024-02-21T03:51:03;16.77;;;8.30;;
83495;SDS011;73431;40.794;43.836;2024-02-21T03:53:32;34.08;;;10.13;;
83495;SDS011;73431;40.794;43.836;2024-02-21T03:56:03;15.90;;;8.52;;
83495;SDS011;73431;40.794;43.836;2024-02-21T03:58:31;21.50;;;8.95;;
83495;SDS011;73431;40.794;43.836;2024-02-21T04:01:00;60.35;;;18.45;;
83495;SDS011;73431;40.794;43.836;2024-02-21T04:03:31;43.92;;;13.30;;
83495;SDS011;73431;40.794;43.836;2024-02-21T04:05:59;28.83;;;11.52;;
83495;SDS011;73431;40.794;43.836;2024-02-21T04:08:27;43.28;;;14.68;;
83495;SDS011;73431;40.794;43.836;2024-02-21T04:10:55;26.42;;;10.57;;
83495;SDS011;73431;40.794;43.836;2024-02-21T04:13:22;22.05;;;9.85;;
83495;SDS011;73431;40.794;43.836;2024-02-21T04:15:50;32.45;;;9.05;;
83495;SDS011;73431;40.794;43.836;2024-02-21T04:18:18;24.33;;;9.95;;
83495;SDS011;73431;40.794;43.836;2024-02-21T04:20:46;27.02;;;10.27;;
83495;SDS011;73431;40.794;43.836;2024-02-21T04:23:14;28.92;;;9.32;;
83495;SDS011;73431;40.794;43.836;2024-02-21T04:25:42;29.23;;;10.65;;
83495;SDS011;73431;40.794;43.836;2024-02-21T04:28:10;36.40;;;9.38;;
83495;SDS011;73431;40.794;43.836;2024-02-21T04:30:38;18.90;;;8.48;;
83495;SDS011;73431;40.794;43.836;2024-02-21T04:33:06;20.83;;;8.48;;
83495;SDS011;73431;40.794;43.836;2024-02-21T04:35:35;25.50;;;9.52;;
83495;SDS011;73431;40.794;43.836;2024-02-21T04:38:03;26.88;;;10.02;;
83495;SDS011;73431;40.794;43.836;2024-02-21T04:40:31;36.17;;;8.98;;
83495;SDS011;73431;40.794;43.836;2024-02-21T04:42:59;25.45;;;9.68;;
83495;SDS011;73431;40.794;43.836;2024-02-21T04:45:27;38.67;;;10.38;;
83495;SDS011;73431;40.794;43.836;2024-02-21T04:50:47;29.10;;;10.48;;
83495;SDS011;73431;40.794;43.836;2024-02-21T04:53:15;53.47;;;10.63;;
83495;SDS011;73431;40.794;43.836;2024-02-21T04:55:43;39.35;;;9.07;;
83495;SDS011;73431;40.794;43.836;2024-02-21T04:58:11;44.55;;;10.70;;
83495;SDS011;73431;40.794;43.836;2024-02-21T05:00:38;41.15;;;10.82;;
83495;SDS011;73431;40.794;43.836;2024-02-21T05:03:06;44.92;;;10.93;;
83495;SDS011;73431;40.794;43.836;2024-02-21T05:05:34;25.70;;;8.05;;
83495;SDS011;73431;40.794;43.836;2024-02-21T05:08:03;34.45;;;9.48;;
83495;SDS011;73431;40.794;43.836;2024-02-21T05:10:31;37.97;;;9.23;;
83495;SDS011;73431;40.794;43.836;2024-02-21T05:12:59;33.72;;;7.65;;
83495;SDS011;73431;40.794;43.836;2024-02-21T05:17:54;41.13;;;9.25;;
83495;SDS011;73431;40.794;43.836;2024-02-21T05:20:22;46.38;;;10.20;;
83495;SDS011;73431;40.794;43.836;2024-02-21T05:22:50;39.92;;;17.00;;
83495;SDS011;73431;40.794;43.836;2024-02-21T05:25:17;45.75;;;16.08;;
83495;SDS011;73431;40.794;43.836;2024-02-21T05:27:46;50.10;;;14.98;;
83495;SDS011;73431;40.794;43.836;2024-02-21T05:30:14;54.03;;;16.85;;
83495;SDS011;73431;40.794;43.836;2024-02-21T05:32:42;52.63;;;15.95;;
83495;SDS011;73431;40.794;43.836;2024-02-21T05:35:10;45.80;;;15.73;;
83495;SDS011;73431;40.794;43.836;2024-02-21T05:37:38;37.33;;;15.32;;
83495;SDS011;73431;40.794;43.836;2024-02-21T05:42:34;26.60;;;13.63;;
83495;SDS011;73431;40.794;43.836;2024-02-21T05:45:02;36.22;;;14.30;;
83495;SDS011;73431;40.794;43.836;2024-02-21T05:47:30;38.80;;;14.20;;
83495;SDS011;73431;40.794;43.836;2024-02-21T05:49:58;36.72;;;13.85;;
83495;SDS011;73431;40.794;43.836;2024-02-21T05:52:26;33.33;;;13.82;;
83495;SDS011;73431;40.794;43.836;2024-02-21T05:54:54;27.25;;;12.30;;
83495;SDS011;73431;40.794;43.836;2024-02-21T05:57:22;34.63;;;14.15;;
83495;SDS011;73431;40.794;43.836;2024-02-21T05:59:50;36.00;;;14.13;;
83495;SDS011;73431;40.794;43.836;2024-02-21T06:02:18;34.83;;;14.95;;
83495;SDS011;73431;40.794;43.836;2024-02-21T06:04:46;44.10;;;14.93;;
83495;SDS011;73431;40.794;43.836;2024-02-21T06:07:14;41.72;;;14.73;;
83495;SDS011;73431;40.794;43.836;2024-02-21T06:09:41;60.15;;;15.43;;
83495;SDS011;73431;40.794;43.836;2024-02-21T06:12:09;35.83;;;12.40;;
83495;SDS011;73431;40.794;43.836;2024-02-21T06:14:37;32.90;;;11.75;;
83495;SDS011;73431;40.794;43.836;2024-02-21T06:17:05;40.25;;;13.30;;
83495;SDS011;73431;40.794;43.836;2024-02-21T06:19:32;45.10;;;13.93;;
83495;SDS011;73431;40.794;43.836;2024-02-21T06:22:01;48.38;;;12.38;;
83495;SDS011;73431;40.794;43.836;2024-02-21T06:24:28;32.42;;;12.82;;
83495;SDS011;73431;40.794;43.836;2024-02-21T06:26:56;34.78;;;11.43;;
83495;SDS011;73431;40.794;43.836;2024-02-21T06:29:23;38.63;;;11.10;;
83495;SDS011;73431;40.794;43.836;2024-02-21T06:31:50;37.17;;;12.50;;
83495;SDS011;73431;40.794;43.836;2024-02-21T06:34:18;39.00;;;13.07;;
83495;SDS011;73431;40.794;43.836;2024-02-21T06:36:46;27.05;;;13.20;;
83495;SDS011;73431;40.794;43.836;2024-02-21T06:39:15;44.47;;;14.57;;
83495;SDS011;73431;40.794;43.836;2024-02-21T06:41:43;34.03;;;12.10;;
83495;SDS011;73431;40.794;43.836;2024-02-21T06:44:10;47.17;;;15.68;;
83495;SDS011;73431;40.794;43.836;2024-02-21T06:46:39;49.22;;;14.48;;
83495;SDS011;73431;40.794;43.836;2024-02-21T06:49:06;34.80;;;11.45;;
83495;SDS011;73431;40.794;43.836;2024-02-21T06:51:34;32.33;;;12.20;;
83495;SDS011;73431;40.794;43.836;2024-02-21T06:54:04;30.40;;;11.35;;
83495;SDS011;73431;40.794;43.836;2024-02-21T06:56:32;27.77;;;10.35;;
83495;SDS011;73431;40.794;43.836;2024-02-21T06:58:59;29.98;;;10.30;;
83495;SDS011;73431;40.794;43.836;2024-02-21T07:01:27;24.17;;;9.25;;
83495;SDS011;73431;40.794;43.836;2024-02-21T07:03:56;19.42;;;8.68;;
83495;SDS011;73431;40.794;43.836;2024-02-21T07:08:52;25.73;;;6.95;;
83495;SDS011;73431;40.794;43.836;2024-02-21T07:11:22;15.55;;;5.80;;
83495;SDS011;73431;40.794;43.836;2024-02-21T07:13:49;11.23;;;5.88;;
83495;SDS011;73431;40.794;43.836;2024-02-21T07:16:18;19.48;;;7.50;;
83495;SDS011;73431;40.794;43.836;2024-02-21T07:18:45;11.77;;;6.55;;
83495;SDS011;73431;40.794;43.836;2024-02-21T07:21:13;17.75;;;6.93;;
83495;SDS011;73431;40.794;43.836;2024-02-21T07:23:42;15.38;;;6.40;;
83495;SDS011;73431;40.794;43.836;2024-02-21T07:26:10;8.52;;;4.93;;
83495;SDS011;73431;40.794;43.836;2024-02-21T07:28:38;11.95;;;6.15;;
83495;SDS011;73431;40.794;43.836;2024-02-21T07:31:05;9.02;;;5.05;;
83495;SDS011;73431;40.794;43.836;2024-02-21T07:33:33;13.00;;;6.35;;
83495;SDS011;73431;40.794;43.836;2024-02-21T07:36:06;15.55;;;5.63;;
83495;SDS011;73431;40.794;43.836;2024-02-21T07:38:34;9.63;;;5.82;;
83495;SDS011;73431;40.794;43.836;2024-02-21T07:41:02;10.27;;;5.28;;
83495;SDS011;73431;40.794;43.836;2024-02-21T07:43:31;8.90;;;5.22;;
83495;SDS011;73431;40.794;43.836;2024-02-21T07:45:59;9.88;;;5.25;;
83495;SDS011;73431;40.794;43.836;2024-02-21T07:48:27;13.40;;;6.20;;
83495;SDS011;73431;40.794;43.836;2024-02-21T07:50:58;21.65;;;6.97;;
83495;SDS011;73431;40.794;43.836;2024-02-21T07:53:26;13.23;;;6.40;;
83495;SDS011;73431;40.794;43.836;2024-02-21T07:55:54;11.02;;;5.72;;
83495;SDS011;73431;40.794;43.836;2024-02-21T07:58:22;12.05;;;6.07;;
83495;SDS011;73431;40.794;43.836;2024-02-21T08:00:50;11.82;;;5.80;;
83495;SDS011;73431;40.794;43.836;2024-02-21T08:03:18;12.05;;;6.35;;
83495;SDS011;73431;40.794;43.836;2024-02-21T08:05:47;10.88;;;5.40;;
83495;SDS011;73431;40.794;43.836;2024-02-21T08:08:14;10.07;;;6.57;;
83495;SDS011;73431;40.794;43.836;2024-02-21T08:10:48;11.57;;;6.00;;
83495;SDS011;73431;40.794;43.836;2024-02-21T08:13:17;9.93;;;5.97;;
83495;SDS011;73431;40.794;43.836;2024-02-21T08:18:12;10.70;;;5.60;;
83495;SDS011;73431;40.794;43.836;2024-02-21T08:20:40;11.35;;;5.80;;
83495;SDS011;73431;40.794;43.836;2024-02-21T08:23:08;8.50;;;5.47;;
83495;SDS011;73431;40.794;43.836;2024-02-21T08:25:36;16.83;;;5.95;;
83495;SDS011;73431;40.794;43.836;2024-02-21T08:28:04;8.57;;;5.05;;
83495;SDS011;73431;40.794;43.836;2024-02-21T08:30:33;10.80;;;6.15;;
83495;SDS011;73431;40.794;43.836;2024-02-21T08:33:01;14.40;;;6.85;;
83495;SDS011;73431;40.794;43.836;2024-02-21T08:35:31;11.88;;;6.30;;
83495;SDS011;73431;40.794;43.836;2024-02-21T08:37:59;14.05;;;6.25;;
83495;SDS011;73431;40.794;43.836;2024-02-21T08:40:27;9.95;;;5.60;;
83495;SDS011;73431;40.794;43.836;2024-02-21T08:45:22;12.77;;;7.15;;
83495;SDS011;73431;40.794;43.836;2024-02-21T08:47:50;9.57;;;5.55;;
83495;SDS011;73431;40.794;43.836;2024-02-21T08:50:18;10.75;;;5.15;;
83495;SDS011;73431;40.794;43.836;2024-02-21T08:52:55;9.23;;;5.10;;
83495;SDS011;73431;40.794;43.836;2024-02-21T08:57:51;7.20;;;4.15;;
83495;SDS011;73431;40.794;43.836;2024-02-21T09:02:51;10.20;;;5.57;;
83495;SDS011;73431;40.794;43.836;2024-02-21T09:05:19;7.90;;;4.03;;
83495;SDS011;73431;40.794;43.836;2024-02-21T09:07:47;6.75;;;4.18;;
83495;SDS011;73431;40.794;43.836;2024-02-21T09:10:15;8.35;;;4.82;;
83495;SDS011;73431;40.794;43.836;2024-02-21T09:12:43;6.93;;;4.30;;
83495;SDS011;73431;40.794;43.836;2024-02-21T09:15:11;7.13;;;4.50;;
83495;SDS011;73431;40.794;43.836;2024-02-21T09:17:38;9.80;;;4.35;;
83495;SDS011;73431;40.794;43.836;2024-02-21T09:20:06;8.02;;;5.13;;
83495;SDS011;73431;40.794;43.836;2024-02-21T09:22:35;6.65;;;4.13;;
83495;SDS011;73431;40.794;43.836;2024-02-21T09:25:03;8.65;;;3.72;;
83495;SDS011;73431;40.794;43.836;2024-02-21T09:27:32;6.82;;;4.03;;
83495;SDS011;73431;40.794;43.836;2024-02-21T09:32:28;12.55;;;4.35;;
83495;SDS011;73431;40.794;43.836;2024-02-21T09:34:56;9.25;;;5.00;;
83495;SDS011;73431;40.794;43.836;2024-02-21T09:37:29;8.63;;;4.55;;
83495;SDS011;73431;40.794;43.836;2024-02-21T09:39:57;9.85;;;4.43;;
83495;SDS011;73431;40.794;43.836;2024-02-21T09:42:29;6.38;;;4.05;;
83495;SDS011;73431;40.794;43.836;2024-02-21T09:50:43;6.75;;;3.97;;
83495;SDS011;73431;40.794;43.836;2024-02-21T09:53:14;7.13;;;3.85;;
83495;SDS011;73431;40.794;43.836;2024-02-21T09:55:43;7.22;;;4.10;;
83495;SDS011;73431;40.794;43.836;2024-02-21T09:58:12;7.75;;;4.75;;
83495;SDS011;73431;40.794;43.836;2024-02-21T10:00:40;6.90;;;3.42;;
83495;SDS011;73431;40.794;43.836;2024-02-21T10:03:08;7.35;;;2.85;;
83495;SDS011;73431;40.794;43.836;2024-02-21T10:05:36;8.10;;;3.38;;
83495;SDS011;73431;40.794;43.836;2024-02-21T10:08:05;5.03;;;2.75;;
83495;SDS011;73431;40.794;43.836;2024-02-21T10:10:40;5.90;;;3.17;;
83495;SDS011;73431;40.794;43.836;2024-02-21T10:13:25;4.85;;;3.30;;
83495;SDS011;73431;40.794;43.836;2024-02-21T10:16:07;5.85;;;3.42;;
83495;SDS011;73431;40.794;43.836;2024-02-21T10:18:35;9.18;;;4.20;;
83495;SDS011;73431;40.794;43.836;2024-02-21T10:21:04;14.23;;;4.32;;
83495;SDS011;73431;40.794;43.836;2024-02-21T10:23:43;34.47;;;17.35;;
83495;SDS011;73431;40.794;43.836;2024-02-21T10:26:11;8.35;;;3.92;;
83495;SDS011;73431;40.794;43.836;2024-02-21T10:28:39;7.43;;;4.60;;
83495;SDS011;73431;40.794;43.836;2024-02-21T10:31:10;5.78;;;3.65;;
83495;SDS011;73431;40.794;43.836;2024-02-21T10:33:38;9.90;;;4.15;;
83495;SDS011;73431;40.794;43.836;2024-02-21T10:38:38;6.93;;;3.90;;
83495;SDS011;73431;40.794;43.836;2024-02-21T10:41:06;7.28;;;4.55;;
83495;SDS011;73431;40.794;43.836;2024-02-21T10:43:38;7.13;;;3.90;;
83495;SDS011;73431;40.794;43.836;2024-02-21T10:46:08;6.90;;;4.05;;
83495;SDS011;73431;40.794;43.836;2024-02-21T10:48:46;5.95;;;4.10;;
83495;SDS011;73431;40.794;43.836;2024-02-21T10:53:54;8.55;;;4.78;;
83495;SDS011;73431;40.794;43.836;2024-02-21T10:56:32;9.82;;;5.20;;
83495;SDS011;73431;40.794;43.836;2024-02-21T10:59:05;8.30;;;3.97;;
83495;SDS011;73431;40.794;43.836;2024-02-21T11:01:34;8.52;;;5.30;;
83495;SDS011;73431;40.794;43.836;2024-02-21T11:04:07;9.02;;;4.70;;
83495;SDS011;73431;40.794;43.836;2024-02-21T11:06:40;8.23;;;5.18;;
83495;SDS011;73431;40.794;43.836;2024-02-21T11:09:10;6.60;;;4.32;;
83495;SDS011;73431;40.794;43.836;2024-02-21T11:11:39;10.18;;;5.32;;
83495;SDS011;73431;40.794;43.836;2024-02-21T11:14:17;135.05;;;12.70;;
83495;SDS011;73431;40.794;43.836;2024-02-21T11:16:46;13.02;;;7.30;;
83495;SDS011;73431;40.794;43.836;2024-02-21T11:19:21;8.50;;;5.00;;
83495;SDS011;73431;40.794;43.836;2024-02-21T11:21:52;6.70;;;4.32;;
83495;SDS011;73431;40.794;43.836;2024-02-21T11:24:25;12.30;;;4.53;;
83495;SDS011;73431;40.794;43.836;2024-02-21T11:27:13;10.57;;;7.25;;
83495;SDS011;73431;40.794;43.836;2024-02-21T11:29:43;14.30;;;7.35;;
83495;SDS011;73431;40.794;43.836;2024-02-21T11:32:15;9.93;;;4.75;;
83495;SDS011;73431;40.794;43.836;2024-02-21T11:34:55;12.02;;;6.50;;
83495;SDS011;73431;40.794;43.836;2024-02-21T11:37:35;9.88;;;5.65;;
83495;SDS011;73431;40.794;43.836;2024-02-21T11:40:07;28.08;;;17.10;;
83495;SDS011;73431;40.794;43.836;2024-02-21T11:42:39;30.33;;;16.67;;
83495;SDS011;73431;40.794;43.836;2024-02-21T11:45:07;11.50;;;5.78;;
83495;SDS011;73431;40.794;43.836;2024-02-21T11:47:38;6.78;;;4.30;;
83495;SDS011;73431;40.794;43.836;2024-02-21T11:50:11;9.18;;;4.25;;
83495;SDS011;73431;40.794;43.836;2024-02-21T11:52:42;8.50;;;3.90;;
83495;SDS011;73431;40.794;43.836;2024-02-21T11:55:10;9.43;;;4.55;;
83495;SDS011;73431;40.794;43.836;2024-02-21T11:57:38;10.02;;;4.90;;
83495;SDS011;73431;40.794;43.836;2024-02-21T12:00:13;15.50;;;6.10;;
83495;SDS011;73431;40.794;43.836;2024-02-21T12:02:43;9.80;;;5.38;;
83495;SDS011;73431;40.794;43.836;2024-02-21T12:05:13;8.48;;;3.90;;
83495;SDS011;73431;40.794;43.836;2024-02-21T12:07:42;7.88;;;3.88;;
83495;SDS011;73431;40.794;43.836;2024-02-21T12:10:11;5.72;;;3.50;;
83495;SDS011;73431;40.794;43.836;2024-02-21T12:12:40;8.93;;;4.40;;
83495;SDS011;73431;40.794;43.836;2024-02-21T12:15:08;8.27;;;4.47;;
83495;SDS011;73431;40.794;43.836;2024-02-21T12:17:37;5.93;;;3.53;;
83495;SDS011;73431;40.794;43.836;2024-02-21T12:20:08;8.38;;;4.95;;
83495;SDS011;73431;40.794;43.836;2024-02-21T12:22:38;9.48;;;4.60;;
83495;SDS011;73431;40.794;43.836;2024-02-21T12:25:16;9.43;;;4.35;;
83495;SDS011;73431;40.794;43.836;2024-02-21T12:27:46;13.75;;;4.15;;
83495;SDS011;73431;40.794;43.836;2024-02-21T12:30:15;11.15;;;4.45;;
83495;SDS011;73431;40.794;43.836;2024-02-21T12:32:43;9.00;;;4.32;;
83495;SDS011;73431;40.794;43.836;2024-02-21T12:35:11;7.53;;;4.03;;
83495;SDS011;73431;40.794;43.836;2024-02-21T12:40:08;5.88;;;3.55;;
83495;SDS011;73431;40.794;43.836;2024-02-21T12:42:38;6.25;;;3.10;;
83495;SDS011;73431;40.794;43.836;2024-02-21T12:45:06;10.52;;;3.72;;
83495;SDS011;73431;40.794;43.836;2024-02-21T12:47:35;7.13;;;3.22;;
83495;SDS011;73431;40.794;43.836;2024-02-21T12:50:03;6.50;;;3.42;;
83495;SDS011;73431;40.794;43.836;2024-02-21T12:52:31;5.93;;;3.90;;
83495;SDS011;73431;40.794;43.836;2024-02-21T12:54:59;7.85;;;4.90;;
83495;SDS011;73431;40.794;43.836;2024-02-21T12:59:55;7.18;;;3.95;;
83495;SDS011;73431;40.794;43.836;2024-02-21T13:02:24;8.77;;;4.45;;
83495;SDS011;73431;40.794;43.836;2024-02-21T13:04:52;11.32;;;4.07;;
83495;SDS011;73431;40.794;43.836;2024-02-21T13:07:20;17.15;;;4.10;;
83495;SDS011;73431;40.794;43.836;2024-02-21T13:09:48;19.90;;;5.40;;
83495;SDS011;73431;40.794;43.836;2024-02-21T13:14:44;8.30;;;4.40;;
83495;SDS011;73431;40.794;43.836;2024-02-21T13:17:12;8.18;;;4.30;;
83495;SDS011;73431;40.794;43.836;2024-02-21T13:19:40;7.75;;;4.55;;
83495;SDS011;73431;40.794;43.836;2024-02-21T13:22:07;13.55;;;4.78;;
83495;SDS011;73431;40.794;43.836;2024-02-21T13:24:35;8.93;;;4.50;;
83495;SDS011;73431;40.794;43.836;2024-02-21T13:27:04;14.95;;;5.00;;
83495;SDS011;73431;40.794;43.836;2024-02-21T13:29:32;11.98;;;4.93;;
83495;SDS011;73431;40.794;43.836;2024-02-21T13:32:00;11.20;;;4.50;;
83495;SDS011;73431;40.794;43.836;2024-02-21T13:34:28;24.30;;;6.05;;
83495;SDS011;73431;40.794;43.836;2024-02-21T13:36:56;11.50;;;5.53;;
83495;SDS011;73431;40.794;43.836;2024-02-21T13:39:24;22.35;;;5.13;;
83495;SDS011;73431;40.794;43.836;2024-02-21T13:41:51;17.35;;;5.68;;
83495;SDS011;73431;40.794;43.836;2024-02-21T13:44:20;11.02;;;5.80;;
83495;SDS011;73431;40.794;43.836;2024-02-21T13:49:15;8.73;;;5.28;;
83495;SDS011;73431;40.794;43.836;2024-02-21T13:51:43;8.55;;;4.93;;
83495;SDS011;73431;40.794;43.836;2024-02-21T13:54:12;7.75;;;4.95;;
83495;SDS011;73431;40.794;43.836;2024-02-21T13:56:43;7.10;;;4.13;;
83495;SDS011;73431;40.794;43.836;2024-02-21T13:59:12;9.80;;;4.63;;
83495;SDS011;73431;40.794;43.836;2024-02-21T14:01:42;12.20;;;6.95;;
83495;SDS011;73431;40.794;43.836;2024-02-21T14:04:10;9.30;;;4.97;;
83495;SDS011;73431;40.794;43.836;2024-02-21T14:06:39;10.85;;;5.25;;
83495;SDS011;73431;40.794;43.836;2024-02-21T14:09:11;7.10;;;4.18;;
83495;SDS011;73431;40.794;43.836;2024-02-21T14:11:39;8.65;;;4.40;;
83495;SDS011;73431;40.794;43.836;2024-02-21T14:14:09;11.85;;;6.05;;
83495;SDS011;73431;40.794;43.836;2024-02-21T14:16:37;12.10;;;6.28;;
83495;SDS011;73431;40.794;43.836;2024-02-21T14:19:04;22.08;;;6.45;;
83495;SDS011;73431;40.794;43.836;2024-02-21T14:21:34;21.95;;;5.50;;
83495;SDS011;73431;40.794;43.836;2024-02-21T14:24:05;9.80;;;5.47;;
83495;SDS011;73431;40.794;43.836;2024-02-21T14:26:33;10.85;;;5.45;;
83495;SDS011;73431;40.794;43.836;2024-02-21T14:29:03;17.80;;;6.47;;
83495;SDS011;73431;40.794;43.836;2024-02-21T14:31:33;16.42;;;5.60;;
83495;SDS011;73431;40.794;43.836;2024-02-21T14:34:01;15.95;;;6.60;;
83495;SDS011;73431;40.794;43.836;2024-02-21T14:36:30;17.90;;;7.03;;
83495;SDS011;73431;40.794;43.836;2024-02-21T14:38:59;24.45;;;8.25;;
83495;SDS011;73431;40.794;43.836;2024-02-21T14:41:27;34.33;;;9.68;;
83495;SDS011;73431;40.794;43.836;2024-02-21T14:43:55;26.98;;;7.97;;
83495;SDS011;73431;40.794;43.836;2024-02-21T14:46:30;24.27;;;7.28;;
83495;SDS011;73431;40.794;43.836;2024-02-21T14:48:59;58.88;;;15.00;;
83495;SDS011;73431;40.794;43.836;2024-02-21T14:51:26;35.33;;;10.70;;
83495;SDS011;73431;40.794;43.836;2024-02-21T14:53:54;40.28;;;9.75;;
83495;SDS011;73431;40.794;43.836;2024-02-21T14:56:22;36.42;;;9.93;;
83495;SDS011;73431;40.794;43.836;2024-02-21T14:58:51;20.02;;;9.35;;
83495;SDS011;73431;40.794;43.836;2024-02-21T15:01:23;40.72;;;10.60;;
83495;SDS011;73431;40.794;43.836;2024-02-21T15:03:51;31.75;;;8.93;;
83495;SDS011;73431;40.794;43.836;2024-02-21T15:06:19;37.15;;;14.43;;
83495;SDS011;73431;40.794;43.836;2024-02-21T15:08:47;38.83;;;13.00;;
83495;SDS011;73431;40.794;43.836;2024-02-21T15:11:16;42.90;;;14.15;;
83495;SDS011;73431;40.794;43.836;2024-02-21T15:13:45;51.03;;;17.52;;
83495;SDS011;73431;40.794;43.836;2024-02-21T15:16:13;33.05;;;10.85;;
83495;SDS011;73431;40.794;43.836;2024-02-21T15:18:41;39.17;;;11.52;;
83495;SDS011;73431;40.794;43.836;2024-02-21T15:21:10;35.45;;;11.02;;
83495;SDS011;73431;40.794;43.836;2024-02-21T15:23:41;28.67;;;10.68;;
83495;SDS011;73431;40.794;43.836;2024-02-21T15:28:37;25.80;;;9.68;;
83495;SDS011;73431;40.794;43.836;2024-02-21T15:31:04;36.90;;;10.30;;
83495;SDS011;73431;40.794;43.836;2024-02-21T15:33:32;30.98;;;11.57;;
83495;SDS011;73431;40.794;43.836;2024-02-21T15:36:04;23.35;;;11.30;;